Time;durP1;ratioP1;P1;durP2;ratioP2;P2;SDS_P1;SDS_P2;PMS_P1;PMS_P2;Temp;Humidity;BMP_temperature;BMP_pressure;BME280_temperature;BME280_humidity;BME280_pressure;Samples;Min_cycle;Max_cycle;Signal;HPM_P1;HPM_P2
2022/06/07 00:01:07;;;;;;;10.65;6.70;;;15.00;99.90;;;;;;4978175;28;92891;-73
2022/06/07 00:03:34;;;;;;;9.88;7.65;;;14.90;99.90;;;;;;4978238;28;92862;-73
2022/06/07 00:06:02;;;;;;;11.52;8.27;;;14.90;99.90;;;;;;4977023;28;92601;-73
2022/06/07 00:08:31;;;;;;;8.85;7.82;;;14.90;99.90;;;;;;4977963;28;93455;-73
2022/06/07 00:10:58;;;;;;;10.45;8.30;;;14.90;99.90;;;;;;4978061;28;93015;-73
2022/06/07 00:13:25;;;;;;;10.07;8.35;;;14.90;99.90;;;;;;4976985;28;92444;-73
2022/06/07 00:15:52;;;;;;;10.57;7.82;;;14.90;99.90;;;;;;4977879;28;92473;-73
2022/06/07 00:18:19;;;;;;;9.38;8.40;;;14.90;99.90;;;;;;4975049;28;98259;-73
2022/06/07 00:20:46;;;;;;;11.25;9.80;;;14.90;99.90;;;;;;4977652;28;95663;-73
2022/06/07 00:23:16;;;;;;;14.02;9.85;;;15.00;99.90;;;;;;4977952;28;92378;-73
2022/06/07 00:25:46;;;;;;;12.38;9.63;;;14.90;99.90;;;;;;4976348;28;92577;-73
2022/06/07 00:28:13;;;;;;;13.48;12.07;;;15.00;99.90;;;;;;4976446;28;94339;-73
2022/06/07 00:30:40;;;;;;;14.40;10.63;;;15.00;99.90;;;;;;4975334;28;95563;-73
2022/06/07 00:33:08;;;;;;;14.65;11.48;;;15.00;99.90;;;;;;4992021;28;97416;-73
2022/06/07 00:35:35;;;;;;;14.38;12.30;;;15.00;99.90;;;;;;4977610;28;91741;-73
2022/06/07 00:38:03;;;;;;;15.55;10.45;;;15.00;99.90;;;;;;4992083;28;94402;-73
2022/06/07 00:40:30;;;;;;;12.95;11.40;;;15.00;99.90;;;;;;4975585;28;95743;-73
2022/06/07 00:42:57;;;;;;;14.30;11.50;;;14.90;99.90;;;;;;4974422;28;94887;-73
2022/06/07 00:45:26;;;;;;;16.25;12.13;;;14.90;99.90;;;;;;4975410;28;92515;-73
2022/06/07 00:47:53;;;;;;;15.48;12.93;;;14.90;99.90;;;;;;4975469;28;93221;-73
2022/06/07 00:50:40;;;;;;;15.60;13.48;;;14.90;99.90;;;;;;4976849;28;93401;-73
2022/06/07 00:53:21;;;;;;;16.17;12.60;;;15.00;99.90;;;;;;4975005;28;93252;-73
2022/06/07 00:55:49;;;;;;;15.73;12.68;;;15.00;99.90;;;;;;4991826;28;92519;-73
2022/06/07 00:58:17;;;;;;;17.75;14.95;;;14.90;99.90;;;;;;4959367;28;95659;-73
2022/06/07 01:00:46;;;;;;;17.55;13.60;;;15.00;99.90;;;;;;4959317;28;95489;-73
2022/06/07 01:03:15;;;;;;;17.02;13.25;;;15.00;99.90;;;;;;4959526;28;92565;-73
2022/06/07 01:05:50;;;;;;;14.68;13.07;;;14.90;99.90;;;;;;4991944;28;92598;-73
2022/06/07 01:11:10;;;;;;;16.50;14.73;;;14.90;99.90;;;;;;4974989;28;97835;-73
2022/06/07 01:13:37;;;;;;;15.75;13.23;;;14.90;99.90;;;;;;4991836;28;92610;-73
2022/06/07 01:16:14;;;;;;;17.08;12.65;;;14.90;99.90;;;;;;4976896;28;92383;-73
2022/06/07 01:18:44;;;;;;;15.65;13.32;;;14.90;99.90;;;;;;4958944;28;95648;-73
2022/06/07 01:21:34;;;;;;;18.45;12.50;;;14.90;99.90;;;;;;4975695;28;93009;-73
2022/06/07 01:24:04;;;;;;;13.55;11.82;;;14.90;99.90;;;;;;4974868;28;92483;-73
2022/06/07 01:26:53;;;;;;;14.65;12.32;;;14.90;99.90;;;;;;4961176;28;92306;-73
2022/06/07 01:29:20;;;;;;;15.00;11.95;;;14.90;99.90;;;;;;4974573;28;95650;-73
2022/06/07 01:31:48;;;;;;;14.25;12.75;;;15.00;99.90;;;;;;4974605;28;95598;-73
2022/06/07 01:34:19;;;;;;;18.08;13.52;;;15.00;99.90;;;;;;4973791;28;94890;-73
2022/06/07 01:36:46;;;;;;;12.88;11.52;;;15.00;99.90;;;;;;4974790;28;92481;-73
2022/06/07 01:41:59;;;;;;;13.13;11.77;;;15.10;99.90;;;;;;4974471;28;95620;-73
2022/06/07 01:44:35;;;;;;;14.05;12.23;;;15.00;99.90;;;;;;4974754;28;92525;-73
2022/06/07 01:47:02;;;;;;;14.38;12.93;;;15.10;99.90;;;;;;4958397;28;92505;-73
2022/06/07 01:49:32;;;;;;;15.20;13.48;;;15.10;99.90;;;;;;4974642;28;96347;-73
2022/06/07 01:51:59;;;;;;;15.98;13.70;;;15.10;99.90;;;;;;4974671;28;95310;-73
2022/06/07 01:54:29;;;;;;;14.23;12.75;;;15.10;99.90;;;;;;4958724;28;92637;-73
2022/06/07 01:56:56;;;;;;;15.30;13.70;;;15.20;99.90;;;;;;4974274;28;92481;-73
2022/06/07 01:59:24;;;;;;;16.48;14.75;;;15.20;99.90;;;;;;4957084;28;97793;-73
2022/06/07 02:01:51;;;;;;;16.27;14.30;;;15.20;99.90;;;;;;4974337;28;97901;-73
2022/06/07 02:04:21;;;;;;;15.85;14.15;;;15.20;99.90;;;;;;4974469;28;92442;-73
2022/06/07 02:06:49;;;;;;;15.48;13.88;;;15.20;99.90;;;;;;4958030;28;92556;-73
2022/06/07 02:09:23;;;;;;;15.35;13.75;;;15.20;99.90;;;;;;4990886;28;96086;-73
2022/06/07 02:11:51;;;;;;;15.73;14.23;;;15.20;99.90;;;;;;4957368;28;95348;-73
2022/06/07 02:14:17;;;;;;;15.02;13.40;;;15.20;99.90;;;;;;4941979;28;92470;-73
2022/06/07 02:16:45;;;;;;;15.63;14.02;;;15.20;99.90;;;;;;4976088;28;91676;-73
2022/06/07 02:19:12;;;;;;;15.82;14.23;;;15.30;99.90;;;;;;4974051;28;95588;-73
2022/06/07 02:21:42;;;;;;;16.83;15.10;;;15.30;99.90;;;;;;4973849;28;95476;-73
2022/06/07 02:24:11;;;;;;;16.25;14.15;;;15.30;99.90;;;;;;4972582;28;94811;-73
2022/06/07 02:26:43;;;;;;;15.95;13.90;;;15.30;99.90;;;;;;4975775;28;92595;-73
2022/06/07 02:29:20;;;;;;;16.98;15.23;;;15.30;99.90;;;;;;4973731;28;95886;-73
2022/06/07 02:31:55;;;;;;;14.70;13.20;;;15.30;99.90;;;;;;4973896;28;96022;-73
2022/06/07 02:34:23;;;;;;;19.20;14.32;;;15.30;99.90;;;;;;4975666;28;92386;-73
2022/06/07 02:36:55;;;;;;;15.68;12.30;;;15.30;99.90;;;;;;4975477;28;92446;-73
2022/06/07 02:39:22;;;;;;;13.60;12.10;;;15.30;99.90;;;;;;4974168;28;93278;-73
2022/06/07 02:41:50;;;;;;;12.93;11.63;;;15.30;99.90;;;;;;4974134;28;95493;-73
2022/06/07 02:44:17;;;;;;;16.23;12.68;;;15.30;99.90;;;;;;4973671;28;92437;-73
2022/06/07 02:46:44;;;;;;;15.05;12.00;;;15.30;99.90;;;;;;4973904;28;92603;-73
2022/06/07 02:49:11;;;;;;;13.82;12.43;;;15.30;99.90;;;;;;4956255;28;97931;-73
2022/06/07 02:51:40;;;;;;;13.05;11.52;;;15.30;99.90;;;;;;4990004;28;96487;-72
2022/06/07 02:54:07;;;;;;;14.98;11.82;;;15.30;99.90;;;;;;4972511;28;92559;-73
2022/06/07 02:56:34;;;;;;;13.45;11.45;;;15.20;99.90;;;;;;4990378;28;92514;-73
2022/06/07 02:59:01;;;;;;;12.95;11.65;;;15.30;99.90;;;;;;4973407;28;95794;-73
2022/06/07 03:01:29;;;;;;;17.20;10.98;;;15.30;99.90;;;;;;4957952;28;94797;-73
2022/06/07 03:03:58;;;;;;;14.90;11.73;;;15.30;99.90;;;;;;4973480;28;92578;-73
2022/06/07 03:06:29;;;;;;;13.68;10.82;;;15.30;99.90;;;;;;4958230;28;91692;-73
2022/06/07 03:08:56;;;;;;;13.00;11.02;;;15.20;99.90;;;;;;4973454;28;95894;-73
2022/06/07 03:11:23;;;;;;;13.90;12.20;;;15.20;99.90;;;;;;4989470;28;95673;-73
2022/06/07 03:13:51;;;;;;;13.18;11.80;;;15.20;99.90;;;;;;4956099;28;94855;-72
2022/06/07 03:16:23;;;;;;;13.15;11.07;;;15.20;99.90;;;;;;4990003;28;92496;-72
2022/06/07 03:18:50;;;;;;;13.15;11.73;;;15.20;99.90;;;;;;4973350;28;94554;-73
2022/06/07 03:21:18;;;;;;;14.93;11.68;;;15.20;99.90;;;;;;4973158;28;95289;-72
2022/06/07 03:23:47;;;;;;;14.23;11.85;;;15.20;99.90;;;;;;4976758;28;92563;-73
2022/06/07 03:26:15;;;;;;;13.35;11.95;;;15.20;99.90;;;;;;4993264;28;92432;-73
2022/06/07 03:28:51;;;;;;;16.58;11.75;;;15.20;99.90;;;;;;4947080;28;95296;-73
2022/06/07 03:31:21;;;;;;;14.30;11.13;;;15.20;99.90;;;;;;4993233;28;95032;-72
2022/06/07 03:33:52;;;;;;;14.32;11.85;;;15.10;99.90;;;;;;4961225;28;93471;-73
2022/06/07 03:36:25;;;;;;;16.63;12.75;;;15.20;99.90;;;;;;4960546;28;93086;-73
2022/06/07 03:38:55;;;;;;;14.35;12.15;;;15.30;99.90;;;;;;4976811;28;95566;-72
2022/06/07 03:41:26;;;;;;;13.35;11.02;;;15.20;99.90;;;;;;4976221;28;97689;-73
2022/06/07 03:44:01;;;;;;;14.70;12.18;;;15.20;99.90;;;;;;4976658;28;92511;-72
2022/06/07 03:46:32;;;;;;;12.75;10.73;;;15.20;99.90;;;;;;4977928;28;92460;-73
2022/06/07 03:49:02;;;;;;;13.75;12.30;;;15.20;99.90;;;;;;4976331;28;95791;-73
2022/06/07 03:51:31;;;;;;;13.48;11.98;;;15.20;99.90;;;;;;4976441;28;95825;-73
2022/06/07 03:53:59;;;;;;;15.45;11.88;;;15.20;99.90;;;;;;4976201;28;92553;-72
2022/06/07 03:56:28;;;;;;;14.00;11.90;;;15.20;99.90;;;;;;4993201;28;91753;-73
2022/06/07 03:58:58;;;;;;;14.43;12.48;;;15.20;99.90;;;;;;4976294;28;95509;-72
2022/06/07 04:01:27;;;;;;;12.63;11.13;;;15.30;99.90;;;;;;4959843;28;95443;-72
2022/06/07 04:04:01;;;;;;;14.18;11.38;;;15.20;99.90;;;;;;4959427;28;94937;-73
2022/06/07 04:06:31;;;;;;;12.10;10.30;;;15.30;99.90;;;;;;4976152;28;92454;-72
2022/06/07 04:09:05;;;;;;;15.98;11.40;;;15.30;99.90;;;;;;4992918;28;95093;-73
2022/06/07 04:11:37;;;;;;;15.10;13.07;;;15.20;99.90;;;;;;4960431;28;95295;-73
2022/06/07 04:14:04;;;;;;;13.55;11.52;;;15.30;99.90;;;;;;4976508;28;92527;-73
2022/06/07 04:16:31;;;;;;;14.85;11.70;;;15.30;99.90;;;;;;4975954;28;92512;-73
2022/06/07 04:19:06;;;;;;;13.00;11.55;;;15.30;99.90;;;;;;4960886;28;94467;-73
2022/06/07 04:21:34;;;;;;;14.55;11.95;;;15.30;99.90;;;;;;4976227;28;94156;-73
2022/06/07 04:24:19;;;;;;;15.30;12.10;;;15.40;99.90;;;;;;4992508;28;92604;-73
2022/06/07 04:26:47;;;;;;;14.25;10.35;;;15.40;99.90;;;;;;4959695;28;92615;-73
2022/06/07 04:29:15;;;;;;;15.85;11.65;;;15.40;99.90;;;;;;4990898;28;98257;-73
2022/06/07 04:31:42;;;;;;;17.13;11.35;;;15.40;99.90;;;;;;4943399;28;97871;-73
2022/06/07 04:34:13;;;;;;;15.15;12.68;;;15.40;99.90;;;;;;4991635;28;92385;-73
2022/06/07 04:36:41;;;;;;;13.57;11.07;;;15.40;99.90;;;;;;4975877;28;92458;-73
2022/06/07 04:39:12;;;;;;;13.40;12.00;;;15.50;99.90;;;;;;4959851;28;96157;-73
2022/06/07 04:41:45;;;;;;;15.95;11.73;;;15.50;99.90;;;;;;4975621;28;95367;-73
2022/06/07 04:44:16;;;;;;;14.18;11.95;;;15.50;99.90;;;;;;4975564;28;92520;-73
2022/06/07 04:46:46;;;;;;;12.10;10.73;;;15.50;99.90;;;;;;4960042;28;91769;-73
2022/06/07 04:49:12;;;;;;;17.00;13.55;;;15.50;99.90;;;;;;4975400;28;95897;-73
2022/06/07 04:51:40;;;;;;;14.40;12.23;;;15.60;99.90;;;;;;4976636;28;92980;-73
2022/06/07 04:54:11;;;;;;;17.75;13.23;;;15.50;99.90;;;;;;4958489;28;94921;-73
2022/06/07 04:56:42;;;;;;;13.05;11.45;;;15.50;99.90;;;;;;4975613;28;92512;-73
2022/06/07 04:59:11;;;;;;;15.88;11.35;;;15.60;99.90;;;;;;4975414;28;95848;-73
2022/06/07 05:01:44;;;;;;;14.75;12.32;;;15.60;99.90;;;;;;4975071;28;95415;-73
2022/06/07 05:04:19;;;;;;;14.55;12.18;;;15.60;99.90;;;;;;4975088;28;92586;-72
2022/06/07 05:06:47;;;;;;;13.68;11.95;;;15.70;99.90;;;;;;4975277;28;92493;-73
2022/06/07 05:09:26;;;;;;;15.15;12.80;;;15.70;99.90;;;;;;4991574;28;95832;-73
2022/06/07 05:12:02;;;;;;;14.43;12.93;;;15.70;99.90;;;;;;4945711;28;95519;-73
2022/06/07 05:14:35;;;;;;;14.63;11.95;;;15.80;99.90;;;;;;4974713;28;92491;-73
2022/06/07 05:17:03;;;;;;;14.07;12.50;;;15.80;99.90;;;;;;4975104;28;92550;-73
2022/06/07 05:19:33;;;;;;;16.50;14.75;;;15.80;99.90;;;;;;4973422;28;97961;-73
2022/06/07 05:22:07;;;;;;;15.60;12.38;;;15.80;99.90;;;;;;4974943;28;97722;-73
2022/06/07 05:24:40;;;;;;;15.20;13.60;;;15.80;99.90;;;;;;4959699;28;92565;-73
2022/06/07 05:27:08;;;;;;;14.40;12.38;;;15.80;99.90;;;;;;4976456;28;92348;-73
2022/06/07 05:29:47;;;;;;;16.35;13.18;;;15.80;99.90;;;;;;4991566;28;95024;-73
2022/06/07 05:32:23;;;;;;;16.38;13.15;;;15.80;99.90;;;;;;4974664;28;95475;-73
2022/06/07 05:34:53;;;;;;;17.73;13.45;;;15.80;99.90;;;;;;4959152;28;92521;-73
2022/06/07 05:37:22;;;;;;;17.38;13.13;;;15.90;99.90;;;;;;4975031;28;91807;-73
2022/06/07 05:40:04;;;;;;;15.77;13.40;;;15.90;99.90;;;;;;4974841;28;94281;-73
2022/06/07 05:42:31;;;;;;;15.77;13.05;;;15.90;99.90;;;;;;4991130;28;95024;-73
2022/06/07 05:45:00;;;;;;;17.95;13.85;;;15.90;99.90;;;;;;4973257;28;94872;-73
2022/06/07 05:47:30;;;;;;;14.57;13.07;;;15.90;99.90;;;;;;4973945;28;92441;-73
2022/06/07 05:49:57;;;;;;;16.55;14.80;;;15.90;99.90;;;;;;4958494;28;95577;-73
2022/06/07 05:52:25;;;;;;;18.60;14.38;;;15.90;99.90;;;;;;4974185;28;95042;-73
2022/06/07 05:54:54;;;;;;;15.48;13.80;;;15.90;99.90;;;;;;4990922;28;92523;-73
2022/06/07 05:57:21;;;;;;;16.45;14.05;;;16.00;99.90;;;;;;4991153;28;93154;-73
2022/06/07 05:59:49;;;;;;;20.30;14.35;;;16.00;99.90;;;;;;4958300;28;96000;-73
2022/06/07 06:02:18;;;;;;;15.95;13.82;;;16.00;99.90;;;;;;4974724;28;95379;-73
2022/06/07 06:04:46;;;;;;;15.88;13.57;;;16.00;99.90;;;;;;4974241;28;92827;-73
2022/06/07 06:07:13;;;;;;;16.17;13.80;;;16.00;99.90;;;;;;4958387;28;92566;-73
2022/06/07 06:12:40;;;;;;;14.95;13.43;;;15.90;99.90;;;;;;4973953;28;98001;-73
2022/06/07 06:15:12;;;;;;;19.48;12.95;;;15.90;99.90;;;;;;4990886;28;92569;-73
2022/06/07 06:17:40;;;;;;;16.70;12.82;;;15.90;99.90;;;;;;4974046;28;92607;-73
2022/06/07 06:20:15;;;;;;;16.70;14.90;;;15.90;99.90;;;;;;4974353;28;95021;-73
2022/06/07 06:22:48;;;;;;;14.48;13.10;;;15.90;99.90;;;;;;4973830;28;95360;-73
2022/06/07 06:25:16;;;;;;;16.42;13.40;;;15.90;99.90;;;;;;4974275;28;92963;-73
2022/06/07 06:27:43;;;;;;;15.27;12.80;;;15.90;99.90;;;;;;4974277;28;92079;-73
2022/06/07 06:30:11;;;;;;;15.60;13.88;;;15.90;99.90;;;;;;4957747;28;95916;-73
2022/06/07 06:32:46;;;;;;;16.98;13.55;;;15.90;99.90;;;;;;4973768;28;95080;-73
2022/06/07 06:35:17;;;;;;;18.95;13.48;;;15.90;99.90;;;;;;4989494;28;94945;-73
2022/06/07 06:37:45;;;;;;;16.10;13.30;;;15.90;99.90;;;;;;4973727;28;92573;-73
2022/06/07 06:40:13;;;;;;;16.90;13.02;;;15.90;99.90;;;;;;4973616;28;95480;-73
2022/06/07 06:42:48;;;;;;;12.18;10.50;;;15.80;99.90;;;;;;4958574;28;95187;-73
2022/06/07 06:45:30;;;;;;;9.32;8.38;;;15.80;99.90;;;;;;4990493;28;92478;-73
2022/06/07 06:48:03;;;;;;;7.30;6.13;;;15.70;99.90;;;;;;4974554;28;92558;-73
2022/06/07 06:50:31;;;;;;;8.13;7.32;;;15.60;99.90;;;;;;4973875;28;95255;-73
2022/06/07 06:52:58;;;;;;;8.18;7.35;;;15.60;99.90;;;;;;4974592;28;95302;-73
2022/06/07 06:55:27;;;;;;;8.50;7.53;;;15.60;99.90;;;;;;4958123;28;92982;-73
2022/06/07 06:57:55;;;;;;;8.75;7.65;;;15.50;99.90;;;;;;4973846;28;92590;-73
2022/06/07 07:00:22;;;;;;;11.02;8.48;;;15.60;99.90;;;;;;4972806;28;96526;-72
2022/06/07 07:02:49;;;;;;;11.10;8.40;;;15.60;99.90;;;;;;4973754;28;97003;-73
2022/06/07 07:05:17;;;;;;;13.80;8.63;;;15.60;99.90;;;;;;4975622;28;92449;-73
2022/06/07 07:07:53;;;;;;;10.90;8.63;;;15.60;99.90;;;;;;4958884;28;92519;-73
2022/06/07 07:10:24;;;;;;;12.43;9.40;;;15.60;99.90;;;;;;4958259;28;95451;-73
2022/06/07 07:12:51;;;;;;;10.25;8.75;;;15.60;99.90;;;;;;4975181;28;93631;-73
2022/06/07 07:15:23;;;;;;;11.75;10.13;;;15.70;99.90;;;;;;4974000;28;93155;-73
2022/06/07 07:18:04;;;;;;;8.98;7.28;;;15.70;99.90;;;;;;4974005;28;91825;-73
2022/06/07 07:20:40;;;;;;;8.50;7.30;;;15.70;99.90;;;;;;4975346;28;93237;-73
2022/06/07 07:23:07;;;;;;;10.02;8.45;;;15.80;99.90;;;;;;4941953;28;95787;-73
2022/06/07 07:25:35;;;;;;;10.20;7.85;;;15.90;99.90;;;;;;4972471;28;94830;-73
2022/06/07 07:28:03;;;;;;;12.50;8.07;;;16.00;99.90;;;;;;4973917;28;92727;-73
2022/06/07 07:30:32;;;;;;;9.73;8.20;;;16.10;99.90;;;;;;4973910;28;95643;-73
2022/06/07 07:32:59;;;;;;;10.75;9.27;;;16.20;99.90;;;;;;4990179;28;95552;-73
2022/06/07 07:35:26;;;;;;;11.57;9.15;;;16.20;99.90;;;;;;4957766;28;92601;-73
2022/06/07 07:37:58;;;;;;;15.75;9.95;;;16.40;99.90;;;;;;4973448;28;92483;-73
2022/06/07 07:40:25;;;;;;;12.25;9.75;;;16.50;99.90;;;;;;4973835;28;95904;-73
2022/06/07 07:42:54;;;;;;;11.55;9.55;;;16.60;99.90;;;;;;4973618;28;95244;-73
2022/06/07 07:45:28;;;;;;;12.00;10.43;;;16.70;99.90;;;;;;4973856;28;92516;-73
2022/06/07 07:47:58;;;;;;;12.38;10.00;;;16.70;99.90;;;;;;4973138;28;92450;-73
2022/06/07 07:50:27;;;;;;;13.02;10.23;;;16.80;99.90;;;;;;4987936;28;96590;-73
2022/06/07 07:53:00;;;;;;;12.38;9.77;;;16.90;99.80;;;;;;4989104;28;96441;-73
2022/06/07 07:55:31;;;;;;;13.45;10.20;;;17.00;99.70;;;;;;4957731;28;92526;-73
2022/06/07 07:58:00;;;;;;;14.30;9.00;;;16.90;99.40;;;;;;4957025;28;92501;-73
2022/06/07 08:00:29;;;;;;;9.10;8.15;;;16.90;99.40;;;;;;4957204;28;95261;-73
2022/06/07 08:03:03;;;;;;;10.73;9.20;;;16.90;99.20;;;;;;4989510;28;95551;-73
2022/06/07 08:05:35;;;;;;;11.07;8.13;;;16.90;99.10;;;;;;4973662;28;92406;-73
2022/06/07 08:08:03;;;;;;;9.93;7.93;;;17.00;99.00;;;;;;4975108;28;91713;-73
2022/06/07 08:10:30;;;;;;;8.40;7.10;;;17.00;98.80;;;;;;4976303;28;94381;-73
2022/06/07 08:12:59;;;;;;;10.13;6.30;;;16.90;98.70;;;;;;4977620;28;92880;-73
2022/06/07 08:15:29;;;;;;;8.95;5.07;;;16.90;98.40;;;;;;4977256;28;95386;-73
2022/06/07 08:17:57;;;;;;;6.82;5.53;;;16.90;98.30;;;;;;4978041;28;92485;-73
2022/06/07 08:20:25;;;;;;;9.00;5.82;;;16.90;98.40;;;;;;4976386;28;93231;-73
2022/06/07 08:22:52;;;;;;;8.48;4.70;;;16.90;98.40;;;;;;4992678;28;103364;-73
2022/06/07 08:25:19;;;;;;;7.50;4.55;;;17.00;98.30;;;;;;4978308;28;93156;-73
2022/06/07 08:27:46;;;;;;;6.90;4.57;;;17.00;98.20;;;;;;4960009;28;92608;-73
2022/06/07 08:30:15;;;;;;;8.05;5.35;;;17.00;98.20;;;;;;4977868;28;93325;-73
2022/06/07 08:32:43;;;;;;;8.80;6.88;;;17.00;98.10;;;;;;4976622;28;91816;-73
2022/06/07 08:38:01;;;;;;;5.93;4.47;;;17.10;98.00;;;;;;4977860;28;92354;-73
2022/06/07 08:40:43;;;;;;;10.15;4.88;;;17.10;97.90;;;;;;4942588;28;98672;-73
2022/06/07 08:43:17;;;;;;;9.23;7.20;;;17.20;97.90;;;;;;4977520;28;96150;-72
2022/06/07 08:45:47;;;;;;;7.65;5.00;;;17.10;98.10;;;;;;4977982;28;92448;-73
2022/06/07 08:48:18;;;;;;;9.77;5.53;;;17.10;98.20;;;;;;4977651;28;92650;-73
2022/06/07 08:50:55;;;;;;;10.50;5.32;;;17.10;98.30;;;;;;4977671;28;93317;-73
2022/06/07 08:53:30;;;;;;;7.38;5.45;;;17.10;98.30;;;;;;4977294;28;93075;-73
2022/06/07 08:56:00;;;;;;;8.10;5.72;;;17.10;98.40;;;;;;4977386;28;92911;-73
2022/06/07 08:58:36;;;;;;;10.20;6.43;;;17.20;98.40;;;;;;4977816;28;91683;-73
2022/06/07 09:01:42;;;;;;;9.32;6.63;;;17.40;98.10;;;;;;4992435;28;95703;-73
2022/06/07 09:04:14;;;;;;;7.47;6.57;;;17.50;97.90;;;;;;4975472;28;95524;-73
2022/06/07 09:06:45;;;;;;;8.75;6.72;;;17.50;98.00;;;;;;4974730;28;94917;-73
2022/06/07 09:09:14;;;;;;;9.40;7.18;;;17.60;98.10;;;;;;4975703;28;92548;-73
2022/06/07 09:14:39;;;;;;;11.65;7.93;;;17.60;98.40;;;;;;4957719;28;93092;-73
2022/06/07 09:17:16;;;;;;;10.20;7.85;;;17.70;98.40;;;;;;4940002;28;92604;-73
2022/06/07 09:19:45;;;;;;;11.60;7.18;;;17.90;98.10;;;;;;4939628;28;92468;-73
2022/06/07 09:22:26;;;;;;;9.32;6.55;;;18.10;98.00;;;;;;4915921;28;95896;-74
2022/06/07 09:25:01;;;;;;;14.27;7.40;;;18.30;97.50;;;;;;4920841;28;95590;-74
2022/06/07 09:27:32;;;;;;;13.63;6.85;;;18.30;97.40;;;;;;4917011;28;93554;-74
2022/06/07 09:30:08;;;;;;;10.82;6.43;;;18.20;97.30;;;;;;4917785;28;92430;-71
2022/06/07 09:32:36;;;;;;;14.27;7.78;;;18.20;97.30;;;;;;4932814;28;95715;-71
2022/06/07 09:35:09;;;;;;;9.00;6.95;;;18.20;97.40;;;;;;4923959;28;95502;-71
2022/06/07 09:37:52;;;;;;;10.23;7.47;;;18.20;97.40;;;;;;4924803;28;92518;-71
2022/06/07 09:40:34;;;;;;;8.48;7.43;;;18.30;97.40;;;;;;4913407;28;92602;-70
2022/06/07 09:43:01;;;;;;;11.45;7.40;;;18.30;97.30;;;;;;4930160;28;93121;-71
2022/06/07 09:45:38;;;;;;;8.05;7.07;;;18.20;97.40;;;;;;4928307;28;94052;-71
2022/06/07 09:48:29;;;;;;;10.82;7.38;;;18.20;97.50;;;;;;4916633;28;93536;-71
2022/06/07 09:51:08;;;;;;;10.38;7.07;;;18.20;97.80;;;;;;4924470;28;92808;-71
2022/06/07 09:53:43;;;;;;;11.15;7.25;;;18.10;98.10;;;;;;4925825;28;94098;-70
2022/06/07 09:56:32;;;;;;;8.32;6.38;;;18.00;98.20;;;;;;4917286;28;93209;-71
2022/06/07 09:59:12;;;;;;;8.95;6.40;;;18.10;98.10;;;;;;4904137;28;94966;-70
2022/06/07 10:02:07;;;;;;;7.82;6.10;;;18.10;98.00;;;;;;4932141;28;92745;-70
2022/06/07 10:04:53;;;;;;;6.38;5.63;;;18.20;97.80;;;;;;4936608;28;93178;-71
2022/06/07 10:07:32;;;;;;;8.10;6.05;;;18.30;97.70;;;;;;4936775;28;92370;-71
2022/06/07 10:09:59;;;;;;;8.57;6.07;;;18.40;97.70;;;;;;4919660;28;92579;-71
2022/06/07 10:12:34;;;;;;;8.90;6.03;;;18.40;97.50;;;;;;4903872;28;92539;-71
2022/06/07 10:15:40;;;;;;;7.05;5.85;;;18.40;97.30;;;;;;4936931;28;93205;-71
2022/06/07 10:18:47;;;;;;;6.07;5.47;;;18.50;97.00;;;;;;4937317;28;93071;-71
2022/06/07 10:21:43;;;;;;;4.78;3.03;;;18.40;97.20;;;;;;4936812;28;92394;-71
2022/06/07 10:24:33;;;;;;;5.07;2.80;;;18.30;97.40;;;;;;4919314;28;92472;-71
2022/06/07 10:27:13;;;;;;;2.88;2.67;;;18.20;97.70;;;;;;4935572;28;97394;-71
2022/06/07 10:30:07;;;;;;;3.90;3.60;;;18.10;97.90;;;;;;4936714;28;95453;-71
2022/06/07 10:33:12;;;;;;;7.00;4.63;;;18.10;98.10;;;;;;4936269;28;92501;-71
2022/06/07 10:36:03;;;;;;;3.75;3.05;;;18.00;98.40;;;;;;4937065;28;92373;-71
2022/06/07 10:38:49;;;;;;;3.25;2.50;;;18.00;98.40;;;;;;4919154;28;99837;-71
2022/06/07 10:41:36;;;;;;;3.00;2.33;;;17.90;98.70;;;;;;4919450;28;93061;-71
2022/06/07 10:44:30;;;;;;;3.53;2.50;;;17.90;98.80;;;;;;4919024;28;92491;-71
2022/06/07 10:46:57;;;;;;;4.18;3.40;;;17.80;99.10;;;;;;4919984;28;91983;-71
2022/06/07 10:49:51;;;;;;;5.10;4.22;;;17.70;99.20;;;;;;4919117;28;96732;-71
2022/06/07 10:53:03;;;;;;;3.72;3.30;;;17.70;99.10;;;;;;4919064;28;97288;-73
2022/06/07 10:55:38;;;;;;;7.38;3.03;;;17.70;99.20;;;;;;4909392;28;95008;-73
2022/06/07 10:58:29;;;;;;;4.25;2.70;;;17.60;99.40;;;;;;4919398;28;92522;-73
2022/06/07 11:01:18;;;;;;;3.55;2.53;;;17.60;99.40;;;;;;4902921;28;94163;-73
2022/06/07 11:03:53;;;;;;;3.45;3.15;;;17.60;99.60;;;;;;4936436;28;92669;-73
2022/06/07 11:09:53;;;;;;;3.55;2.97;;;17.60;99.50;;;;;;4918874;28;92522;-73
2022/06/07 11:12:24;;;;;;;3.70;2.60;;;17.50;99.70;;;;;;4936214;28;93149;-73
2022/06/07 11:14:51;;;;;;;1.40;1.20;;;17.50;99.90;;;;;;4937000;28;94466;-73
2022/06/07 11:17:45;;;;;;;1.95;1.85;;;17.40;99.70;;;;;;4936364;28;92529;-73
2022/06/07 11:20:19;;;;;;;;;;;17.60;99.60;;;;;;4910098;28;92533;-73
2022/06/07 11:22:56;;;;;;;2.28;2.03;;;17.50;99.60;;;;;;4918553;28;98328;-73
2022/06/07 11:25:38;;;;;;;2.67;2.47;;;17.70;99.70;;;;;;4902389;28;99361;-73
2022/06/07 11:28:16;;;;;;;1.52;1.20;;;17.90;99.60;;;;;;4936496;28;93034;-73
2022/06/07 11:30:47;;;;;;;2.83;2.63;;;18.00;99.50;;;;;;4935415;28;92902;-73
2022/06/07 11:33:42;;;;;;;1.73;1.40;;;18.10;99.30;;;;;;4916984;28;95633;-73
2022/06/07 11:36:12;;;;;;;1.35;1.25;;;18.30;99.10;;;;;;4939354;28;94311;-73
2022/06/07 11:39:03;;;;;;;3.00;2.80;;;18.40;99.00;;;;;;4955398;28;92560;-73
2022/06/07 11:41:46;;;;;;;1.48;1.42;;;18.70;98.30;;;;;;4955977;28;91625;-73
2022/06/07 11:44:16;;;;;;;2.53;2.38;;;18.90;98.00;;;;;;4940138;28;95872;-73
2022/06/07 11:46:52;;;;;;;2.60;2.50;;;18.90;97.60;;;;;;4958465;28;94468;-73
2022/06/07 11:52:11;;;;;;;1.70;1.60;;;19.10;97.60;;;;;;4941148;28;93013;-73
2022/06/07 11:54:48;;;;;;;1.60;0.90;;;19.40;97.30;;;;;;4956457;28;97424;-73
2022/06/07 11:57:37;;;;;;;2.50;1.55;;;19.50;97.10;;;;;;4958534;28;93075;-73
2022/06/07 12:00:20;;;;;;;1.50;1.40;;;19.60;97.00;;;;;;4941108;28;92660;-73
2022/06/07 12:03:05;;;;;;;1.33;1.13;;;19.90;96.60;;;;;;4957199;28;92625;-73
2022/06/07 12:05:35;;;;;;;1.38;1.13;;;20.10;96.10;;;;;;4955468;28;99685;-73
2022/06/07 12:08:11;;;;;;;2.00;1.00;;;20.20;96.30;;;;;;4955459;28;98957;-73
2022/06/07 12:10:42;;;;;;;2.78;2.58;;;20.30;95.90;;;;;;4938163;28;98936;-73
2022/06/07 12:13:49;;;;;;;2.50;1.10;;;20.30;95.70;;;;;;4937614;28;98585;-73
2022/06/07 12:16:13;;;;;;;2.65;1.60;;;20.30;95.30;;;;;;4954014;28;103445;-74
2022/06/07 12:18:49;;;;;;;2.33;1.55;;;20.40;95.50;;;;;;4955194;28;100493;-73
2022/06/07 12:21:16;;;;;;;3.10;1.00;;;20.20;95.20;;;;;;4938093;28;98538;-73
2022/06/07 12:23:47;;;;;;;2.58;1.20;;;20.00;95.40;;;;;;4937863;28;98683;-73
2022/06/07 12:26:29;;;;;;;3.38;3.05;;;19.90;95.70;;;;;;4955032;28;99282;-73
2022/06/07 12:29:00;;;;;;;2.63;1.20;;;19.80;95.70;;;;;;4953512;28;101501;-73
2022/06/07 12:31:40;;;;;;;2.90;2.63;;;19.50;96.10;;;;;;4937673;28;98548;-73
2022/06/07 12:34:30;;;;;;;2.85;2.45;;;19.40;96.20;;;;;;4949197;28;97966;-73
2022/06/07 12:37:11;;;;;;;2.22;1.75;;;19.40;96.10;;;;;;4935513;28;99355;-73
2022/06/07 12:39:45;;;;;;;3.15;1.50;;;19.30;96.30;;;;;;4935665;28;99137;-73
2022/06/07 12:42:15;;;;;;;3.95;1.33;;;19.30;96.20;;;;;;4918311;28;99362;-73
2022/06/07 12:44:54;;;;;;;5.45;2.13;;;19.40;95.80;;;;;;4935786;28;98484;-73
2022/06/07 12:47:27;;;;;;;3.65;2.35;;;19.40;95.70;;;;;;4917742;28;99276;-73
2022/06/07 12:49:54;;;;;;;2.67;1.60;;;19.50;95.30;;;;;;4935183;28;98953;-73
2022/06/07 12:52:26;;;;;;;4.35;1.50;;;19.60;95.20;;;;;;4935532;28;99157;-73
2022/06/07 12:55:07;;;;;;;2.80;1.50;;;19.90;94.90;;;;;;4916713;28;98654;-73
2022/06/07 12:57:45;;;;;;;5.10;3.42;;;20.10;94.60;;;;;;4917896;28;99489;-73
2022/06/07 13:00:21;;;;;;;3.20;2.35;;;20.20;94.40;;;;;;4935320;28;99084;-73
2022/06/07 13:02:55;;;;;;;3.72;2.00;;;20.40;94.20;;;;;;4918312;28;98936;-73
2022/06/07 13:05:24;;;;;;;4.15;1.67;;;20.50;93.90;;;;;;4935513;28;98425;-73
2022/06/07 13:07:53;;;;;;;3.60;1.77;;;20.50;93.80;;;;;;4916680;28;103062;-73
2022/06/07 13:10:26;;;;;;;3.47;2.13;;;20.40;93.80;;;;;;4934907;28;99685;-73
2022/06/07 13:12:55;;;;;;;2.43;2.23;;;20.30;93.90;;;;;;4934994;28;98836;-73
2022/06/07 13:15:26;;;;;;;4.10;1.80;;;20.10;94.00;;;;;;4917565;28;98495;-73
2022/06/07 13:18:24;;;;;;;3.13;2.22;;;20.00;93.90;;;;;;4901273;28;101817;-73
2022/06/07 13:21:12;;;;;;;4.18;3.55;;;19.90;93.70;;;;;;4929906;28;99625;-73
2022/06/07 13:23:41;;;;;;;5.63;2.70;;;19.80;93.70;;;;;;4935059;28;98524;-73
2022/06/07 13:26:27;;;;;;;2.92;2.45;;;19.70;93.80;;;;;;4935544;28;97804;-73